createdAt,value
2022-10-19T00:17:50.221Z,814
2022-10-19T00:37:50.272Z,813
2022-10-19T01:17:50.395Z,809
2022-10-19T01:37:50.424Z,809
2022-10-19T02:17:50.551Z,810
2022-10-19T02:37:50.604Z,810
2022-10-19T02:57:50.696Z,810
2022-10-19T03:37:50.826Z,811
2022-10-19T03:57:58.840Z,811
2022-10-19T04:17:50.878Z,809
2022-10-19T04:37:50.947Z,806
2022-10-19T05:37:59.114Z,803
2022-10-19T06:57:59.342Z,791
2022-10-19T07:57:59.513Z,803
2022-10-19T08:17:59.560Z,805
2022-10-19T08:38:02.088Z,810
2022-10-19T08:57:59.669Z,817
2022-10-19T09:17:59.718Z,818
2022-10-19T09:37:59.772Z,814
2022-10-19T10:17:51.876Z,806
2022-10-19T10:37:51.944Z,807
2022-10-19T10:57:59.993Z,810
2022-10-19T11:38:14.197Z,797
2022-10-19T11:57:52.139Z,795
2022-10-19T12:17:52.166Z,799
2022-10-19T12:37:52.223Z,806
2022-10-19T12:58:00.278Z,805
2022-10-19T13:17:52.311Z,802
2022-10-19T13:37:52.379Z,798
2022-10-19T13:57:53.200Z,796
2022-10-19T14:17:52.462Z,799
2022-10-19T14:37:52.516Z,804
2022-10-19T14:57:52.562Z,806
2022-10-19T15:17:52.609Z,807
2022-10-19T15:57:52.707Z,807
2022-10-19T16:37:52.792Z,809
2022-10-19T16:57:52.858Z,808
2022-10-19T17:17:52.893Z,806
2022-10-19T17:37:52.943Z,807
2022-10-19T17:57:53.002Z,813
2022-10-19T19:17:53.209Z,810
2022-10-19T19:37:53.263Z,814
2022-10-19T19:57:53.297Z,816
2022-10-19T20:17:53.380Z,815
2022-10-19T20:58:01.472Z,810
2022-10-19T21:18:01.532Z,810
2022-10-19T21:37:53.592Z,813
2022-10-19T21:58:01.627Z,806
2022-10-19T22:38:09.733Z,794
2022-10-19T22:57:53.792Z,788
2022-10-19T23:17:53.837Z,786
2022-10-19T23:58:01.953Z,788
